createdAt,value
2022-08-05T03:26:52.430Z,61.1
2022-08-05T03:32:52.431Z,62
2022-08-05T03:46:52.431Z,60.2
2022-08-05T04:12:52.442Z,59.8
2022-08-05T05:31:52.477Z,55.8
2022-08-05T05:32:52.479Z,55.6
2022-08-05T05:33:59.385Z,55.5
2022-08-05T05:34:52.601Z,55.3
2022-08-05T05:35:52.479Z,55.4
2022-08-05T05:36:52.479Z,55.2
2022-08-05T05:38:52.475Z,55.8
2022-08-05T05:39:52.528Z,55.5
2022-08-05T05:40:52.476Z,55.2
2022-08-05T05:41:54.344Z,55.7
2022-08-05T05:42:52.474Z,55.6
2022-08-05T05:43:58.200Z,55.3
2022-08-05T05:44:52.544Z,55.8
2022-08-05T05:45:52.486Z,55.7
2022-08-05T05:46:52.484Z,55.9
2022-08-05T05:48:06.480Z,56.1
2022-08-05T05:48:52.486Z,55.8
2022-08-05T05:49:57.015Z,56.3
2022-08-05T05:50:52.493Z,56.2
2022-08-05T05:51:52.477Z,55.8
2022-08-05T05:52:52.478Z,55.7
2022-08-05T05:53:58.367Z,55.6
2022-08-05T05:54:52.478Z,55.6
2022-08-05T05:56:00.674Z,55.4
2022-08-05T05:56:52.489Z,55.7
2022-08-05T05:57:53.235Z,55.7
2022-08-05T05:58:52.493Z,55.8
2022-08-05T05:59:52.880Z,55.7
2022-08-05T06:00:52.485Z,55.8
2022-08-05T06:01:57.724Z,55.7
2022-08-05T06:02:52.491Z,55.8
2022-08-05T06:04:00.755Z,55.5
2022-08-05T06:04:52.498Z,55.8
2022-08-05T06:05:54.281Z,55.6
2022-08-05T06:06:52.490Z,55.7
2022-08-05T06:08:01.143Z,56
2022-08-05T06:08:52.492Z,56
2022-08-05T06:10:00.557Z,56.3
2022-08-05T06:10:53.008Z,56.6
2022-08-05T06:11:59.301Z,56.6
2022-08-05T06:14:52.493Z,57.6
2022-08-05T06:16:30.901Z,59.2
2022-08-05T06:16:52.542Z,59.4
2022-08-05T06:17:54.704Z,59.6
2022-08-05T06:18:53.662Z,59.1
2022-08-05T06:19:56.872Z,58.9
2022-08-05T06:20:54.287Z,58.6
2022-08-05T06:21:52.543Z,58.8
2022-08-05T06:22:52.507Z,59
2022-08-05T06:23:52.497Z,58.6
2022-08-05T06:24:52.506Z,58.2
2022-08-05T06:26:13.927Z,57.9
2022-08-05T06:26:53.175Z,58.1
2022-08-05T06:28:11.890Z,58
2022-08-05T06:28:52.517Z,59
2022-08-05T06:30:04.592Z,58.6
2022-08-05T06:30:52.499Z,59.1
2022-08-05T06:31:52.499Z,58.6
2022-08-05T06:32:52.494Z,58.2
2022-08-05T06:34:06.955Z,58.1
2022-08-05T06:36:07.518Z,57.5
2022-08-05T06:36:57.513Z,57.4
2022-08-05T06:38:52.497Z,57.8
2022-08-05T06:39:52.509Z,57.5
2022-08-05T06:40:52.508Z,57.1
2022-08-05T06:41:52.500Z,57.2
2022-08-05T06:42:52.894Z,56.8
2022-08-05T06:44:52.507Z,56.7
2022-08-05T06:46:04.053Z,57
2022-08-05T06:46:52.505Z,56.8
2022-08-05T06:48:36.839Z,56.9
2022-08-05T06:48:58.613Z,56.8
2022-08-05T06:50:02.042Z,57.2
2022-08-05T06:50:52.509Z,57.2
2022-08-05T06:53:03.617Z,58.2
2022-08-05T06:53:53.526Z,58.9
2022-08-05T06:54:52.513Z,58.6
2022-08-05T06:55:52.516Z,58.1
2022-08-05T06:56:55.083Z,58.4
2022-08-05T06:58:02.557Z,58.2
2022-08-05T06:58:52.505Z,58.6
2022-08-05T06:59:55.192Z,58.4
2022-08-05T07:00:52.586Z,58.4
2022-08-05T07:01:52.949Z,58.4
2022-08-05T07:02:53.634Z,57.8
2022-08-05T07:03:52.512Z,57.4
2022-08-05T07:04:52.518Z,57.2
2022-08-05T07:05:52.527Z,57
2022-08-05T07:06:52.517Z,57.3
2022-08-05T07:07:52.513Z,56.5
2022-08-05T07:08:54.975Z,57.6
2022-08-05T07:09:55.501Z,58.1
2022-08-05T07:10:53.921Z,58.7
2022-08-05T07:11:52.518Z,59
2022-08-05T07:12:52.516Z,58.7
2022-08-05T07:13:58.571Z,58.6
2022-08-05T07:14:53.989Z,59
2022-08-05T07:16:01.089Z,59.1
2022-08-05T07:17:58.540Z,59.3
2022-08-05T07:18:08.588Z,58.9
2022-08-05T07:18:52.514Z,58.9
2022-08-05T07:20:52.514Z,58.7
2022-08-05T07:22:01.038Z,58
2022-08-05T07:22:52.513Z,59
2022-08-05T07:23:52.513Z,58.8
2022-08-05T07:24:53.771Z,58.6
2022-08-05T07:25:55.906Z,58.6
2022-08-05T07:26:52.521Z,57.7
2022-08-05T07:27:58.585Z,58.4
2022-08-05T07:28:52.520Z,58.6
2022-08-05T07:30:28.228Z,58
2022-08-05T07:30:54.860Z,57.8
2022-08-05T07:31:54.549Z,57.5
2022-08-05T07:32:53.416Z,57
2022-08-05T07:33:52.516Z,56.6
2022-08-05T07:34:58.025Z,56.5
2022-08-05T07:36:04.910Z,56.2
2022-08-05T07:36:52.897Z,56.8
2022-08-05T07:37:52.525Z,56.1
2022-08-05T07:38:54.970Z,55.8
2022-08-05T07:40:04.247Z,55.5
2022-08-05T07:40:55.662Z,55.3
2022-08-05T07:42:13.376Z,55.5
2022-08-05T07:42:52.523Z,55.7
2022-08-05T07:43:52.532Z,55.5
2022-08-05T07:44:52.525Z,55.5
2022-08-05T07:45:57.353Z,55.3
2022-08-05T07:46:52.523Z,55.5
2022-08-05T07:47:55.779Z,56.1
2022-08-05T07:49:02.030Z,56.9
2022-08-05T07:49:54.501Z,56.5
2022-08-05T07:50:52.530Z,57
2022-08-05T07:51:54.408Z,57.2
2022-08-05T07:52:52.525Z,56.7
2022-08-05T07:53:52.533Z,56.3
2022-08-05T07:54:52.536Z,56
2022-08-05T07:56:05.886Z,56.2
2022-08-05T07:57:02.672Z,56
2022-08-05T07:57:58.990Z,56.3
2022-08-05T07:59:52.525Z,56.1
2022-08-05T08:00:52.633Z,56
2022-08-05T08:01:57.647Z,56.5
2022-08-05T08:03:13.855Z,56.5
2022-08-05T08:03:52.535Z,56.2
2022-08-05T08:04:52.532Z,56.2
2022-08-05T08:05:52.531Z,55.9
2022-08-05T08:06:52.536Z,55.7
2022-08-05T08:07:59.762Z,55.4
2022-08-05T08:08:52.573Z,55.4
2022-08-05T08:10:52.535Z,55.3
2022-08-05T08:11:53.668Z,55.8
2022-08-05T08:12:52.529Z,55.5
2022-08-05T08:14:00.911Z,55.5
2022-08-05T08:14:52.778Z,55.3
2022-08-05T08:16:50.232Z,55.6
2022-08-05T08:16:53.513Z,55.4
2022-08-05T08:17:53.244Z,55.1
2022-08-05T08:18:52.595Z,54.8
2022-08-05T08:20:21.750Z,55.5
2022-08-05T08:21:03.155Z,55.9
2022-08-05T08:21:52.535Z,55.8
2022-08-05T08:22:52.546Z,55.6
2022-08-05T08:24:01.846Z,55.6
2022-08-05T08:24:52.544Z,55.5
2022-08-05T08:25:59.066Z,55.8
2022-08-05T08:26:52.554Z,55.9
2022-08-05T08:27:52.544Z,55.6
2022-08-05T08:28:59.050Z,55.5
2022-08-05T08:30:05.971Z,55.3
2022-08-05T08:31:52.595Z,55.6
2022-08-05T08:32:52.589Z,55.5
2022-08-05T08:33:53.154Z,55.1
2022-08-05T08:34:52.545Z,55.1
2022-08-05T08:36:03.703Z,54.9
2022-08-05T08:36:56.667Z,54.7
2022-08-05T08:37:54.386Z,55
2022-08-05T08:38:53.448Z,54.8
2022-08-05T08:39:52.673Z,54.5
2022-08-05T08:40:52.549Z,54.5
2022-08-05T08:41:59.946Z,54.3
2022-08-05T08:42:52.908Z,54.4
2022-08-05T08:45:23.048Z,54.3
2022-08-05T08:45:23.840Z,54.4
2022-08-05T08:45:52.554Z,54.5
2022-08-05T08:46:52.543Z,54.4
2022-08-05T08:48:10.478Z,54
2022-08-05T08:49:07.795Z,54.6
2022-08-05T08:50:23.483Z,54.8
2022-08-05T08:51:22.544Z,55.4
2022-08-05T08:52:53.105Z,54.9
2022-08-05T08:53:52.572Z,54.7
2022-08-05T08:54:52.559Z,54.4
2022-08-05T08:56:03.421Z,54.2
2022-08-05T08:56:52.548Z,53.6
2022-08-05T08:57:58.089Z,53.8
2022-08-05T08:58:52.554Z,53.7
2022-08-05T08:59:52.548Z,54.1
2022-08-05T09:00:52.619Z,54.3
2022-08-05T09:01:57.402Z,54.3
2022-08-05T09:02:52.551Z,53.9
2022-08-05T09:03:54.402Z,53.6
2022-08-05T09:05:16.546Z,53.2
2022-08-05T09:06:08.459Z,53.2
2022-08-05T09:06:52.552Z,53.3
2022-08-05T09:07:56.997Z,52.9
2022-08-05T09:09:52.556Z,53.8
2022-08-05T09:10:52.627Z,54.6
2022-08-05T09:11:57.772Z,53.6
2022-08-05T09:14:09.739Z,53.8
2022-08-05T09:14:56.411Z,53.6
2022-08-05T09:15:52.571Z,53.6
2022-08-05T09:16:52.563Z,53.8
2022-08-05T09:17:53.073Z,53.3
2022-08-05T09:18:52.563Z,53.7
2022-08-05T09:20:52.564Z,53.7
2022-08-05T09:22:23.143Z,53.6
2022-08-05T09:22:52.564Z,53.4
2022-08-05T09:23:52.561Z,53.1
2022-08-05T09:24:52.558Z,53.1
2022-08-05T09:26:01.668Z,53
2022-08-05T09:26:52.566Z,52.9
2022-08-05T09:28:05.428Z,52.9
2022-08-05T09:28:52.571Z,52.9
2022-08-05T09:29:52.585Z,52.9
2022-08-05T09:30:52.574Z,52.6
2022-08-05T09:32:41.003Z,52.5
2022-08-05T09:32:53.554Z,52.1
2022-08-05T09:34:52.577Z,52.4
2022-08-05T09:35:52.567Z,52.2
2022-08-05T09:36:55.843Z,52.3
2022-08-05T09:38:12.034Z,51.8
2022-08-05T09:38:52.568Z,51.2
2022-08-05T09:39:56.050Z,50.9
2022-08-05T09:40:54.027Z,50.8
2022-08-05T09:41:56.107Z,50.9
2022-08-05T09:42:52.563Z,50.9
2022-08-05T09:43:52.575Z,50.8
2022-08-05T09:44:52.580Z,50.2
2022-08-05T09:46:06.648Z,50
2022-08-05T09:46:57.952Z,50
2022-08-05T09:47:56.087Z,50.4
2022-08-05T09:48:55.409Z,50.6
2022-08-05T09:50:00.372Z,50.4
2022-08-05T09:50:52.573Z,50.3
2022-08-05T09:51:52.572Z,49.9
2022-08-05T09:52:53.016Z,49.4
2022-08-05T09:53:54.506Z,49
2022-08-05T09:55:57.651Z,48.9
2022-08-05T09:56:52.646Z,48.4
2022-08-05T09:57:54.403Z,48.5
2022-08-05T09:58:52.598Z,48.6
2022-08-05T09:59:52.581Z,49
2022-08-05T10:00:52.603Z,48.7
2022-08-05T10:01:58.142Z,48.6
2022-08-05T10:02:52.621Z,48
2022-08-05T10:03:58.729Z,48.9
2022-08-05T10:04:52.595Z,48.2
2022-08-05T10:05:52.571Z,49.6
2022-08-05T10:06:58.883Z,49.5
2022-08-05T10:08:36.009Z,49.5
2022-08-05T10:10:04.096Z,48.4
2022-08-05T10:10:54.630Z,47.4
2022-08-05T10:11:52.584Z,47.3
2022-08-05T10:12:52.638Z,47.1
2022-08-05T10:13:54.724Z,46.6
2022-08-05T10:14:54.494Z,45.6
2022-08-05T10:16:53.502Z,45.2
2022-08-05T10:17:56.716Z,43.5
2022-08-05T10:18:52.583Z,43.7
2022-08-05T10:20:04.361Z,45.7
2022-08-05T10:20:52.584Z,45.5
2022-08-05T10:21:52.594Z,44.4
2022-08-05T10:22:52.668Z,44.8
2022-08-05T10:23:58.754Z,44.9
2022-08-05T10:24:52.601Z,44.3
2022-08-05T10:25:52.597Z,43.5
2022-08-05T10:26:52.912Z,44.1
2022-08-05T10:28:13.360Z,45.5
2022-08-05T10:28:52.602Z,45.4
2022-08-05T10:30:06.881Z,45
2022-08-05T10:32:51.904Z,44.6
2022-08-05T10:33:01.674Z,43.5
2022-08-05T10:33:02.200Z,43.1
2022-08-05T10:33:54.178Z,42.8
2022-08-05T10:34:52.623Z,41.6
2022-08-05T10:35:52.670Z,42.1
2022-08-05T10:37:52.604Z,42.7
2022-08-05T10:38:52.590Z,41.5
2022-08-05T10:40:03.517Z,41.4
2022-08-05T10:40:58.207Z,40.1
2022-08-05T10:41:52.602Z,37.6
2022-08-05T10:42:52.656Z,39.1
2022-08-05T10:43:52.602Z,38.9
2022-08-05T10:44:52.608Z,39.1
2022-08-05T10:45:52.610Z,38.7
2022-08-05T10:46:54.057Z,38
2022-08-05T10:48:58.036Z,36.3
2022-08-05T10:50:33.081Z,36.9
2022-08-05T10:50:52.595Z,36.9
2022-08-05T10:52:00.506Z,37
2022-08-05T10:52:52.609Z,37.2
2022-08-05T10:53:52.621Z,36.7
2022-08-05T10:54:56.813Z,36.1
2022-08-05T10:56:04.773Z,35.2
2022-08-05T10:56:52.943Z,35.3
2022-08-05T10:57:52.608Z,34.7
2022-08-05T10:58:52.624Z,34
2022-08-05T11:00:04.398Z,34.4
2022-08-05T11:00:55.425Z,33.5
2022-08-05T11:01:55.453Z,35
2022-08-05T11:02:52.719Z,34.7
2022-08-05T11:03:52.661Z,34.6
2022-08-05T11:04:52.616Z,34.6
2022-08-05T11:05:52.608Z,34.7
2022-08-05T11:06:52.847Z,33.8
2022-08-05T11:08:02.389Z,34.9
2022-08-05T11:08:46.621Z,35.1
2022-08-05T11:10:09.561Z,35.1
2022-08-05T11:11:00.209Z,35.6
2022-08-05T11:11:54.000Z,35
2022-08-05T11:12:55.297Z,35.1
2022-08-05T11:13:54.944Z,35.7
2022-08-05T11:15:11.874Z,36.7
2022-08-05T11:16:00.919Z,37
2022-08-05T11:16:57.196Z,36.4
2022-08-05T11:17:57.725Z,35.9
2022-08-05T11:18:52.619Z,36.7
2022-08-05T11:20:16.982Z,36.7
2022-08-05T11:20:52.617Z,36.4
2022-08-05T11:21:52.620Z,36.4
2022-08-05T11:22:54.851Z,36.3
2022-08-05T11:24:03.091Z,35.7
2022-08-05T11:26:02.984Z,35.8
2022-08-05T11:26:04.685Z,35.4
2022-08-05T11:26:52.625Z,36.2
2022-08-05T11:28:00.534Z,36.3
2022-08-05T11:28:52.620Z,36.2
2022-08-05T11:29:52.707Z,35.9
2022-08-05T11:30:53.252Z,35.8
2022-08-05T11:31:56.779Z,35.9
2022-08-05T11:32:52.628Z,35.5
2022-08-05T11:33:52.622Z,35.3
2022-08-05T11:34:54.367Z,34.8
2022-08-05T11:36:07.877Z,33.1
2022-08-05T11:36:53.232Z,34.2
2022-08-05T11:38:52.787Z,34.2
2022-08-05T11:39:55.317Z,34.1
2022-08-05T11:40:53.930Z,33.7
2022-08-05T11:42:01.021Z,33.6
2022-08-05T11:42:52.635Z,33.8
2022-08-05T11:44:05.191Z,33.1
2022-08-05T11:44:53.811Z,33.7
2022-08-05T11:46:15.397Z,33.7
2022-08-05T11:47:09.840Z,34.5
2022-08-05T11:48:52.632Z,35
2022-08-05T11:49:52.642Z,34.4
2022-08-05T11:50:52.638Z,34.5
2022-08-05T11:51:52.630Z,33.2
2022-08-05T11:52:57.563Z,34.5
2022-08-05T11:53:52.635Z,34.2
2022-08-05T11:54:54.983Z,32.8
2022-08-05T11:56:52.651Z,33
2022-08-05T11:58:10.833Z,33.7
2022-08-05T11:58:53.129Z,32.7
2022-08-05T11:59:52.647Z,32.2
2022-08-05T12:00:52.817Z,34.8
2022-08-05T12:01:52.646Z,33.1
2022-08-05T12:02:52.778Z,34.6
2022-08-05T12:03:55.802Z,34.7
2022-08-05T12:04:59.297Z,35.4
2022-08-05T12:05:52.641Z,33
2022-08-05T12:06:52.647Z,34.9
2022-08-05T12:08:09.529Z,36
2022-08-05T12:08:52.643Z,35.3
2022-08-05T12:09:53.884Z,35.3
2022-08-05T12:10:52.647Z,34.3
2022-08-05T12:11:52.649Z,33.7
2022-08-05T12:12:59.559Z,34.3
2022-08-05T12:13:52.651Z,32.4
2022-08-05T12:14:52.655Z,32.1
2022-08-05T12:15:52.649Z,34.7
2022-08-05T12:18:03.724Z,34.4
2022-08-05T12:18:53.492Z,35
2022-08-05T12:20:26.136Z,34.4
2022-08-05T12:20:52.661Z,34.5
2022-08-05T12:21:52.655Z,35.1
2022-08-05T12:22:52.657Z,34.1
2022-08-05T12:23:52.656Z,35.4
2022-08-05T12:24:52.665Z,34.6
2022-08-05T12:25:53.382Z,36.3
2022-08-05T12:26:52.660Z,36.8
2022-08-05T12:27:53.117Z,36.5
2022-08-05T12:28:52.661Z,35.6
2022-08-05T12:29:56.802Z,36.4
2022-08-05T12:30:52.666Z,36.7
2022-08-05T12:31:53.485Z,38.3
2022-08-05T12:32:52.675Z,38.1
2022-08-05T12:33:52.666Z,38.8
2022-08-05T12:34:52.662Z,37.8
2022-08-05T12:35:52.743Z,37.9
2022-08-05T12:36:52.671Z,38.6
2022-08-05T12:37:53.209Z,39.2
2022-08-05T12:38:52.669Z,38.3
2022-08-05T12:39:53.784Z,38.5
2022-08-05T12:40:52.677Z,39.2
2022-08-05T12:41:57.882Z,39.1
2022-08-05T12:42:52.693Z,38.9
2022-08-05T12:43:52.665Z,37.4
2022-08-05T12:44:52.687Z,36.7
2022-08-05T12:45:52.669Z,37
2022-08-05T12:46:52.670Z,36.5
2022-08-05T12:48:17.009Z,37.1
2022-08-05T12:48:52.674Z,37.8
2022-08-05T12:50:05.337Z,35.8
2022-08-05T12:50:52.668Z,37.6
2022-08-05T12:52:13.012Z,33.8
2022-08-05T12:52:52.667Z,34.2
2022-08-05T12:53:55.707Z,35.8
2022-08-05T12:54:52.673Z,31.1
2022-08-05T12:55:52.678Z,32.4
2022-08-05T12:56:52.670Z,34.5
2022-08-05T12:58:49.830Z,35.3
2022-08-05T12:58:55.745Z,34.1
2022-08-05T13:01:58.593Z,33.3
2022-08-05T13:02:01.313Z,34.7
2022-08-05T13:02:04.443Z,35.4
2022-08-05T13:02:55.682Z,33.4
2022-08-05T13:03:52.676Z,34
2022-08-05T13:04:54.737Z,34.4
2022-08-05T13:06:52.686Z,33.9
2022-08-05T13:07:59.415Z,32.8
2022-08-05T13:08:53.015Z,32.4
2022-08-05T13:09:56.686Z,31.4
2022-08-05T13:10:52.681Z,32.3
2022-08-05T13:12:01.996Z,32.9
2022-08-05T13:12:58.191Z,33
2022-08-05T13:14:06.686Z,32.5
2022-08-05T13:14:59.219Z,31.7
2022-08-05T13:15:52.685Z,33.7
2022-08-05T13:16:52.688Z,32.8
2022-08-05T13:17:52.685Z,33.7
2022-08-05T13:18:52.689Z,35.1
2022-08-05T13:19:53.122Z,35
2022-08-05T13:20:52.684Z,35.9
2022-08-05T13:21:56.059Z,35.5
2022-08-05T13:22:52.685Z,36.2
2022-08-05T13:23:52.689Z,35.2
2022-08-05T13:24:58.064Z,36.4
2022-08-05T13:25:59.547Z,35.8
2022-08-05T13:26:52.697Z,36.9
2022-08-05T13:27:52.690Z,37.6
2022-08-05T13:28:52.693Z,36.2
2022-08-05T13:29:59.421Z,36.9
2022-08-05T13:30:53.286Z,38.2
2022-08-05T13:32:03.721Z,38.1
2022-08-05T13:32:52.697Z,37.6
2022-08-05T13:34:21.275Z,37.9
2022-08-05T13:34:52.699Z,37.9
2022-08-05T13:35:52.694Z,38
2022-08-05T13:36:52.700Z,37.9
2022-08-05T13:37:55.563Z,36.7
2022-08-05T13:38:52.705Z,37.1
2022-08-05T13:40:16.421Z,36.1
2022-08-05T13:40:52.776Z,36.4
2022-08-05T13:41:52.708Z,35.5
2022-08-05T13:42:55.644Z,34.4
2022-08-05T13:43:55.174Z,33.6
2022-08-05T13:44:52.709Z,32.9
2022-08-05T13:45:52.705Z,33.6
2022-08-05T13:47:04.647Z,31.7
2022-08-05T13:48:09.475Z,30.8
2022-08-05T13:48:58.907Z,32.3
2022-08-05T13:49:52.703Z,31.5
2022-08-05T13:52:52.702Z,30.3
2022-08-05T13:53:52.714Z,30.3
2022-08-05T13:54:53.281Z,30.1
2022-08-05T13:55:58.934Z,30.4
2022-08-05T13:56:52.707Z,30.1
2022-08-05T13:57:52.709Z,30.5
2022-08-05T13:59:57.709Z,30.7
2022-08-05T14:00:52.716Z,31.6
2022-08-05T14:01:56.532Z,31.6
2022-08-05T14:02:52.769Z,31.4
2022-08-05T14:03:52.782Z,30.2
2022-08-05T14:04:52.720Z,31.1
2022-08-05T14:06:25.766Z,30.1
2022-08-05T14:06:58.780Z,29.3
2022-08-05T14:07:59.994Z,29.5
2022-08-05T14:08:52.759Z,29.7
2022-08-05T14:09:52.720Z,29.4
2022-08-05T14:10:52.721Z,27.6
2022-08-05T14:12:04.378Z,27.6
2022-08-05T14:13:55.086Z,28.5
2022-08-05T14:14:52.720Z,29.2
2022-08-05T14:16:07.847Z,28.4
2022-08-05T14:16:55.336Z,28
2022-08-05T14:17:55.054Z,27.3
2022-08-05T14:18:52.787Z,28.6
2022-08-05T14:19:55.210Z,26.4
2022-08-05T14:20:52.950Z,29.8
2022-08-05T14:22:09.279Z,29.2
2022-08-05T14:22:52.723Z,29.2
2022-08-05T14:23:52.717Z,26.5
2022-08-05T14:24:52.720Z,26.9
2022-08-05T14:25:54.242Z,26.2
2022-08-05T14:27:15.640Z,25.8
2022-08-05T14:27:52.723Z,26.2
2022-08-05T14:28:52.722Z,26.3
2022-08-05T14:29:52.739Z,25.3
2022-08-05T15:00:59.457Z,22.2
2022-08-05T15:02:14.992Z,25
2022-08-05T15:03:15.004Z,24.4
2022-08-05T15:04:03.026Z,24.4
2022-08-05T15:05:08.756Z,24.4
2022-08-05T15:06:12.902Z,24.4
2022-08-05T15:06:52.749Z,23.9
2022-08-05T15:08:08.925Z,24.1
2022-08-05T15:09:01.343Z,23.9
2022-08-05T15:09:54.464Z,23.7
2022-08-05T15:10:52.740Z,24.1
2022-08-05T15:11:53.751Z,23.8
2022-08-05T15:13:52.752Z,22.4
2022-08-05T15:14:52.743Z,23.7
2022-08-05T15:16:52.742Z,23.3
2022-08-05T15:17:53.186Z,24.2
2022-08-05T15:18:52.764Z,23.6
2022-08-05T15:19:52.760Z,24.1
2022-08-05T15:20:52.756Z,24.6
2022-08-05T15:21:52.751Z,24.5
2022-08-05T15:22:55.107Z,24.8
2022-08-05T15:23:52.753Z,23.7
2022-08-05T15:24:52.751Z,24.3
2022-08-05T15:25:55.869Z,25
2022-08-05T15:26:52.750Z,24.5
2022-08-05T15:27:54.780Z,24.5
2022-08-05T15:28:52.754Z,24.6
2022-08-05T15:29:52.778Z,24.3
2022-08-05T15:30:53.292Z,24.2
2022-08-05T15:31:53.191Z,24.4
2022-08-05T15:32:52.760Z,24
2022-08-05T15:34:05.867Z,24.9
2022-08-05T15:34:52.772Z,24.4
2022-08-05T15:35:52.761Z,24.9
2022-08-05T15:38:32.797Z,25.5
2022-08-05T15:40:41.283Z,25.5
2022-08-05T15:41:04.037Z,25.4
2022-08-05T15:41:04.456Z,26.1
2022-08-05T15:41:55.999Z,25.2
2022-08-05T15:42:56.114Z,25.9
2022-08-05T15:43:55.036Z,26.3
2022-08-05T15:44:52.765Z,25.4
2022-08-05T15:46:00.198Z,26.1
2022-08-05T15:46:52.786Z,26.2
2022-08-05T15:47:57.545Z,26.4
2022-08-05T15:49:00.590Z,26.5
2022-08-05T15:49:58.582Z,26.2
2022-08-05T15:50:52.774Z,26.1
2022-08-05T15:52:13.877Z,25.1
2022-08-05T15:52:55.359Z,25.7
2022-08-05T15:53:52.765Z,26.3
2022-08-05T15:54:52.772Z,26.5
2022-08-05T15:56:03.111Z,26.5
2022-08-05T15:56:52.779Z,26.7
2022-08-05T15:58:52.781Z,27.2
2022-08-05T15:59:56.650Z,26.2
2022-08-05T16:01:11.850Z,26.7
2022-08-05T16:01:53.595Z,26.4
2022-08-05T16:02:52.865Z,26.4
2022-08-05T16:03:52.780Z,25.9
2022-08-05T16:04:52.776Z,26.5
2022-08-05T16:05:52.881Z,24.7
2022-08-05T16:06:52.853Z,25.8
2022-08-05T16:07:52.781Z,25.9
2022-08-05T16:08:53.590Z,25.7
2022-08-05T16:09:52.788Z,25.7
2022-08-05T16:10:52.777Z,25.5
2022-08-05T16:11:54.053Z,25.3
2022-08-05T16:12:52.786Z,25.3
2022-08-05T16:13:52.781Z,24.7
2022-08-05T16:14:52.791Z,25.5
2022-08-05T16:15:52.785Z,25.1
2022-08-05T16:16:53.802Z,25.4
2022-08-05T16:17:58.086Z,25.1
2022-08-05T16:20:04.654Z,24.9
2022-08-05T16:20:52.790Z,25.8
2022-08-05T16:22:00.396Z,25.4
2022-08-05T16:22:52.785Z,25.7
2022-08-05T16:23:53.864Z,26.1
2022-08-05T16:24:52.790Z,26.4
2022-08-05T16:25:55.183Z,25.6
2022-08-05T16:26:52.802Z,25.7
2022-08-05T16:28:02.271Z,26.1
2022-08-05T16:28:52.793Z,26
2022-08-05T16:29:52.896Z,26.2
2022-08-05T16:30:52.855Z,25.4
2022-08-05T16:31:57.354Z,25.7
2022-08-05T16:32:52.836Z,25.5
2022-08-05T16:33:53.484Z,26.2
2022-08-05T16:34:52.794Z,27
2022-08-05T16:35:53.076Z,26.9
2022-08-05T16:36:52.800Z,25.7
2022-08-05T16:38:02.403Z,26.9
2022-08-05T16:38:54.639Z,27.1
2022-08-05T16:40:06.566Z,26.2
2022-08-05T16:40:59.659Z,26.8
2022-08-05T16:42:52.802Z,26.6
2022-08-05T16:43:56.330Z,27.1
2022-08-05T16:44:54.264Z,27.8
2022-08-05T16:46:04.550Z,27.1
2022-08-05T16:46:56.044Z,27.1
2022-08-05T16:47:54.371Z,27.4
2022-08-05T16:48:52.835Z,27.8
2022-08-05T16:49:53.644Z,27.5
2022-08-05T16:50:52.807Z,27.2
2022-08-05T16:51:54.832Z,27.6
2022-08-05T16:52:52.856Z,27.2
2022-08-05T16:54:05.302Z,27.4
2022-08-05T16:54:52.817Z,27.5
2022-08-05T16:55:52.829Z,27.2
2022-08-05T16:56:52.812Z,27.3
2022-08-05T16:58:00.166Z,27.8
2022-08-05T16:58:52.809Z,27.6
2022-08-05T17:00:02.797Z,27.1
2022-08-05T17:00:52.919Z,27.1
2022-08-05T17:01:55.893Z,26.9
2022-08-05T17:03:52.856Z,27.1
2022-08-05T17:04:52.817Z,26.8
2022-08-05T17:05:54.292Z,27
2022-08-05T17:06:53.428Z,27.1
2022-08-05T17:07:54.627Z,26.2
2022-08-05T17:08:54.385Z,26.6
2022-08-05T17:09:57.612Z,27.7
2022-08-05T17:10:52.817Z,27.9
2022-08-05T17:11:59.895Z,28.2
2022-08-05T17:12:53.234Z,28.2
2022-08-05T17:14:00.356Z,27.5
2022-08-05T17:14:52.817Z,27.8
2022-08-05T17:15:55.610Z,27.8
2022-08-05T17:16:53.864Z,28.1
2022-08-05T17:17:52.883Z,27.8
2022-08-05T17:19:55.430Z,27.8
2022-08-05T17:20:52.821Z,27.7
2022-08-05T17:21:52.848Z,27.7
2022-08-05T17:22:55.338Z,27.5
2022-08-05T17:24:04.266Z,27.7
2022-08-05T17:24:58.160Z,28
2022-08-05T17:25:52.844Z,27.6
2022-08-05T17:26:52.844Z,28.3
2022-08-05T17:27:52.821Z,28
2022-08-05T17:28:52.886Z,27.9
2022-08-05T17:30:52.876Z,27.3
2022-08-05T17:31:58.570Z,27.9
2022-08-05T17:32:52.829Z,27.8
2022-08-05T17:33:52.826Z,27.9
2022-08-05T17:34:52.827Z,28.1
2022-08-05T17:36:52.827Z,28.2
2022-08-05T17:37:52.842Z,28.3
2022-08-05T17:38:52.836Z,28.4
2022-08-05T17:40:52.894Z,28.4
2022-08-05T17:42:20.337Z,28.4
2022-08-05T17:42:53.640Z,28.1
2022-08-05T17:43:54.287Z,28.4
2022-08-05T17:44:52.839Z,28.6
2022-08-05T17:45:52.833Z,28.8
2022-08-05T17:46:52.838Z,28.5
2022-08-05T17:47:55.704Z,28.5
2022-08-05T17:48:52.840Z,28.3
2022-08-05T17:50:03.882Z,28.8
2022-08-05T17:50:52.832Z,28.7
2022-08-05T17:51:52.834Z,29.1
2022-08-05T17:52:55.071Z,29.2
2022-08-05T17:53:54.529Z,29
2022-08-05T17:54:52.835Z,28.1
2022-08-05T17:55:52.848Z,29.3
2022-08-05T17:56:52.841Z,29.2
2022-08-05T17:57:52.835Z,29.1
2022-08-05T17:58:52.833Z,29
2022-08-05T18:00:03.785Z,28.3
2022-08-05T18:01:52.853Z,29.5
2022-08-05T18:02:52.837Z,29.9
2022-08-05T18:04:04.358Z,30
2022-08-05T18:04:55.045Z,29.9
2022-08-05T18:05:53.692Z,29.9
2022-08-05T18:06:52.843Z,30.6
2022-08-05T18:07:52.848Z,31.1
2022-08-05T18:08:52.930Z,30.7
2022-08-05T18:10:01.922Z,31.4
2022-08-05T18:10:52.844Z,31.6
2022-08-05T18:11:52.843Z,31.4
2022-08-05T18:12:52.846Z,30.9
2022-08-05T18:13:52.850Z,31.1
2022-08-05T18:14:52.847Z,31.1
2022-08-05T18:15:52.852Z,31.9
2022-08-05T18:16:52.861Z,31.7
2022-08-05T18:18:01.554Z,31
2022-08-05T18:18:52.844Z,31.5
2022-08-05T18:19:54.074Z,31.2
2022-08-05T18:20:52.855Z,31.4
2022-08-05T18:22:54.522Z,31.4
2022-08-05T18:23:53.955Z,31.3
2022-08-05T18:24:52.858Z,31.7
2022-08-05T18:25:57.736Z,32
2022-08-05T18:26:52.870Z,31.4
2022-08-05T18:27:52.929Z,31.9
2022-08-05T18:28:52.860Z,31.9
2022-08-05T18:30:52.863Z,32
2022-08-05T18:31:52.859Z,32.5
2022-08-05T18:32:53.327Z,32.1
2022-08-05T18:33:52.859Z,32
2022-08-05T18:34:52.858Z,31.9
2022-08-05T18:36:03.439Z,31.9
2022-08-05T18:36:52.862Z,32.4
2022-08-05T18:37:52.859Z,32.3
2022-08-05T18:38:52.861Z,32.2
2022-08-05T18:40:33.745Z,32.3
2022-08-05T18:41:56.360Z,32.1
2022-08-05T18:42:01.818Z,32.5
2022-08-05T18:43:52.865Z,32.6
2022-08-05T18:44:56.485Z,32.4
2022-08-05T18:45:56.157Z,32.3
2022-08-05T18:46:52.884Z,32.3
2022-08-05T18:47:56.651Z,32.5
2022-08-05T18:48:52.870Z,32.3
2022-08-05T18:49:58.183Z,32.5
2022-08-05T18:50:52.904Z,32.8
2022-08-05T18:52:06.034Z,32.7
2022-08-05T18:52:52.865Z,32.5
2022-08-05T18:54:52.874Z,32.7
2022-08-05T18:55:52.872Z,33
2022-08-05T18:56:52.882Z,33
2022-08-05T18:58:02.951Z,33.1
2022-08-05T18:58:52.901Z,33.3
2022-08-05T19:00:03.107Z,33.3
2022-08-05T19:00:52.937Z,33.1
2022-08-05T19:01:58.542Z,33.5
2022-08-05T19:02:52.979Z,33.7
2022-08-05T19:05:01.245Z,33.7
2022-08-05T19:06:11.363Z,33.8
2022-08-05T19:06:53.511Z,34.3
2022-08-05T19:07:52.871Z,35
2022-08-05T19:08:52.878Z,35.1
2022-08-05T19:09:53.059Z,35.1
2022-08-05T19:10:52.875Z,35.3
2022-08-05T19:11:59.306Z,35.6
2022-08-05T19:12:52.877Z,35.7
2022-08-05T19:14:01.050Z,35.8
2022-08-05T19:15:00.547Z,35.7
2022-08-05T19:15:57.104Z,35.7
2022-08-05T19:16:52.873Z,35.7
2022-08-05T19:18:09.199Z,35.9
2022-08-05T19:18:52.884Z,36
2022-08-05T19:19:52.880Z,35.9
2022-08-05T19:20:52.876Z,36.3
2022-08-05T19:21:52.881Z,36.6
2022-08-05T19:22:52.894Z,36.5
2022-08-05T19:24:06.562Z,36.8
2022-08-05T19:25:52.887Z,36.5
2022-08-05T19:26:55.181Z,36.4
2022-08-05T19:27:52.885Z,36.5
2022-08-05T19:28:52.893Z,36.4
2022-08-05T19:29:46.608Z,36.1
2022-08-05T19:30:52.888Z,36.4
2022-08-05T19:31:52.879Z,37
2022-08-05T19:32:52.884Z,37
2022-08-05T19:34:55.230Z,37
2022-08-05T19:36:52.890Z,37.1
2022-08-05T19:38:06.363Z,36.8
2022-08-05T19:38:52.901Z,36.8
2022-08-05T19:39:52.974Z,37.3
2022-08-05T19:40:52.893Z,37.2
2022-08-05T19:42:07.373Z,37.1
2022-08-05T19:43:00.748Z,37.1
2022-08-05T19:44:06.792Z,37
2022-08-05T19:44:52.888Z,37.1
2022-08-05T19:46:52.917Z,37.4
2022-08-05T19:47:55.695Z,37.3
2022-08-05T19:48:52.887Z,37.8
2022-08-05T19:49:57.339Z,37.9
2022-08-05T19:50:52.901Z,38.4
2022-08-05T19:52:06.121Z,38.1
2022-08-05T19:52:52.904Z,38.2
2022-08-05T19:54:03.466Z,38.2
2022-08-05T19:54:52.909Z,38.2
2022-08-05T19:56:14.201Z,38.3
2022-08-05T19:56:52.919Z,38.6
2022-08-05T19:58:19.408Z,38.5
2022-08-05T19:58:54.199Z,38.8
2022-08-05T19:59:59.533Z,39.1
2022-08-05T20:00:52.969Z,38.6
2022-08-05T20:01:52.895Z,38.5
2022-08-05T20:02:52.924Z,39
2022-08-05T20:03:52.906Z,39.3
2022-08-05T20:04:52.905Z,38.9
2022-08-05T20:05:52.901Z,39.5
2022-08-05T20:07:57.680Z,39.6
2022-08-05T20:08:52.942Z,40.3
2022-08-05T20:09:54.375Z,39.7
2022-08-05T20:10:52.900Z,39.7
2022-08-05T20:11:52.904Z,40
2022-08-05T20:13:58.857Z,39.5